Time;durP1;ratioP1;P1;durP2;ratioP2;P2;SDS_P1;SDS_P2;PMS_P1;PMS_P2;Temp;Humidity;BMP_temperature;BMP_pressure;BME280_temperature;BME280_humidity;BME280_pressure;Samples;Min_cycle;Max_cycle;Signal;HPM_P1;HPM_P2
2022/09/29 00:02:15;;;;;;;6.73;4.80;;;11.00;99.90;;;;;;4976925;28;20448;-74
2022/09/29 00:04:41;;;;;;;7.13;4.53;;;11.00;99.90;;;;;;4974861;28;20677;-76
2022/09/29 00:07:07;;;;;;;6.00;4.70;;;11.00;99.90;;;;;;4980370;28;20183;-75
2022/09/29 00:09:32;;;;;;;6.07;4.17;;;11.10;99.90;;;;;;4973033;28;20299;-75
2022/09/29 00:11:58;;;;;;;5.20;4.17;;;11.10;99.90;;;;;;4966782;28;20197;-75
2022/09/29 00:14:24;;;;;;;5.50;4.80;;;11.00;99.90;;;;;;4979076;28;20293;-75
2022/09/29 00:16:49;;;;;;;6.63;4.80;;;11.00;99.90;;;;;;4974084;28;20174;-74
2022/09/29 00:19:15;;;;;;;8.60;4.87;;;11.00;99.90;;;;;;4957363;28;20219;-75
2022/09/29 00:21:41;;;;;;;9.50;6.40;;;11.00;99.90;;;;;;4971610;28;20185;-75
2022/09/29 00:24:07;;;;;;;7.57;5.23;;;11.00;99.90;;;;;;4958705;28;20440;-75
2022/09/29 00:26:32;;;;;;;8.53;5.43;;;11.00;99.90;;;;;;4980374;28;20166;-75
2022/09/29 00:28:59;;;;;;;6.43;4.93;;;11.00;99.90;;;;;;4974069;28;20948;-75
2022/09/29 00:31:30;;;;;;;6.80;4.50;;;11.00;99.90;;;;;;4980273;28;20190;-75
2022/09/29 00:33:56;;;;;;;7.07;5.07;;;11.00;99.90;;;;;;4978772;28;20462;-75
2022/09/29 00:36:23;;;;;;;5.43;4.83;;;11.00;99.90;;;;;;4979808;28;20944;-75
2022/09/29 00:38:53;;;;;;;6.03;5.43;;;11.00;99.90;;;;;;4961904;28;21015;-75
2022/09/29 00:41:24;;;;;;;6.70;4.60;;;11.00;99.90;;;;;;4962625;28;20448;-75
2022/09/29 00:43:50;;;;;;;8.87;4.93;;;11.00;99.90;;;;;;4977247;28;20429;-75
2022/09/29 00:46:39;;;;;;;7.30;4.10;;;11.00;99.90;;;;;;4979188;28;20424;-75
2022/09/29 00:49:32;;;;;;;6.67;4.37;;;10.90;99.90;;;;;;4960954;28;20218;-76
2022/09/29 00:52:06;;;;;;;7.30;4.10;;;10.90;99.90;;;;;;4961349;28;20870;-75
2022/09/29 00:54:42;;;;;;;8.07;4.07;;;10.90;99.90;;;;;;4974749;28;21199;-75
2022/09/29 00:57:11;;;;;;;6.40;4.20;;;10.90;99.90;;;;;;4968480;28;20480;-76
2022/09/29 00:59:49;;;;;;;6.37;4.30;;;10.90;99.90;;;;;;4976003;28;20458;-75
2022/09/29 01:02:17;;;;;;;6.87;4.20;;;11.00;99.90;;;;;;4968736;28;20516;-76
2022/09/29 01:04:45;;;;;;;6.60;4.10;;;11.00;99.90;;;;;;4969171;28;20512;-75
2022/09/29 01:07:12;;;;;;;7.03;4.40;;;11.00;99.90;;;;;;4980245;28;20457;-76
2022/09/29 01:09:40;;;;;;;9.87;4.70;;;11.00;99.90;;;;;;4976593;28;21167;-77
2022/09/29 01:12:09;;;;;;;5.67;4.30;;;11.10;99.90;;;;;;4971413;28;20528;-76
2022/09/29 01:14:37;;;;;;;5.23;4.27;;;11.10;99.90;;;;;;4978680;28;20494;-76
2022/09/29 01:17:03;;;;;;;9.13;4.57;;;11.10;99.90;;;;;;4958933;28;20480;-76
2022/09/29 01:19:49;;;;;;;4.80;4.30;;;11.20;99.90;;;;;;4974713;28;20488;-76
2022/09/29 01:22:26;;;;;;;6.27;4.43;;;11.20;99.90;;;;;;4971407;28;20445;-76
2022/09/29 01:25:23;;;;;;;12.13;5.93;;;11.20;99.90;;;;;;4970802;28;20452;-76
2022/09/29 01:28:08;;;;;;;7.60;4.40;;;11.20;99.90;;;;;;4949973;28;20558;-76
2022/09/29 01:30:42;;;;;;;5.13;4.47;;;11.20;99.90;;;;;;4953074;28;20455;-76
2022/09/29 01:33:14;;;;;;;5.00;4.10;;;11.10;99.90;;;;;;4969662;28;20471;-75
2022/09/29 01:36:17;;;;;;;10.80;4.73;;;11.10;99.90;;;;;;4951651;28;20591;-75
2022/09/29 01:39:05;;;;;;;7.07;5.10;;;11.10;99.90;;;;;;4972610;28;20461;-75
2022/09/29 01:41:40;;;;;;;5.23;4.63;;;11.20;99.90;;;;;;4979408;28;20428;-75
2022/09/29 01:44:26;;;;;;;7.23;4.50;;;11.20;99.90;;;;;;4980807;28;20429;-75
2022/09/29 01:47:04;;;;;;;7.20;5.30;;;11.10;99.90;;;;;;4980059;28;20421;-75
2022/09/29 01:49:33;;;;;;;6.13;4.63;;;11.00;99.90;;;;;;4968760;28;20815;-75
2022/09/29 01:52:05;;;;;;;6.77;4.77;;;11.00;99.90;;;;;;4974971;28;21191;-75
2022/09/29 01:54:58;;;;;;;6.63;4.60;;;11.00;99.90;;;;;;4977835;28;20464;-75
2022/09/29 01:57:47;;;;;;;5.73;4.57;;;11.00;99.90;;;;;;4978551;28;20543;-75
2022/09/29 02:00:16;;;;;;;9.47;5.90;;;10.90;99.90;;;;;;4961174;28;20437;-75
2022/09/29 02:02:55;;;;;;;7.00;4.57;;;11.00;99.90;;;;;;4957208;28;20824;-75
2022/09/29 02:05:28;;;;;;;5.13;4.40;;;11.00;99.90;;;;;;4967421;28;20433;-75
2022/09/29 02:07:57;;;;;;;7.57;4.53;;;11.10;99.90;;;;;;4973378;28;21786;-74
2022/09/29 02:10:29;;;;;;;9.00;4.40;;;11.00;99.90;;;;;;4967622;28;20810;-74
2022/09/29 02:12:59;;;;;;;8.03;4.97;;;11.00;99.90;;;;;;4972139;28;20445;-74
2022/09/29 02:15:30;;;;;;;6.20;4.60;;;11.00;99.90;;;;;;4974896;28;20445;-74
2022/09/29 02:18:00;;;;;;;6.60;5.17;;;10.90;99.90;;;;;;4980645;28;20520;-74
2022/09/29 02:20:26;;;;;;;6.97;5.00;;;10.80;99.90;;;;;;4972009;28;20445;-74
2022/09/29 02:22:51;;;;;;;8.53;4.87;;;10.80;99.90;;;;;;4950873;28;20433;-74
2022/09/29 02:25:19;;;;;;;6.30;4.73;;;10.90;99.90;;;;;;4968026;28;20200;-74
2022/09/29 02:27:47;;;;;;;6.30;4.77;;;10.90;99.90;;;;;;4974014;28;20252;-75
2022/09/29 02:30:13;;;;;;;6.57;5.30;;;10.90;99.90;;;;;;4964917;28;20446;-74
2022/09/29 02:32:38;;;;;;;7.00;4.60;;;10.90;99.90;;;;;;4970548;28;20519;-75
2022/09/29 02:35:07;;;;;;;9.80;4.37;;;10.80;99.90;;;;;;4968764;28;20519;-74
2022/09/29 02:37:54;;;;;;;5.47;3.93;;;10.80;99.90;;;;;;4970672;28;20796;-75
2022/09/29 02:40:47;;;;;;;6.30;4.87;;;10.70;99.90;;;;;;4969304;28;21002;-76
2022/09/29 02:43:18;;;;;;;5.77;4.07;;;10.80;99.90;;;;;;4969040;28;20438;-75
2022/09/29 02:45:59;;;;;;;8.30;4.20;;;10.80;99.90;;;;;;4972721;28;20472;-73
2022/09/29 02:48:47;;;;;;;6.67;3.97;;;10.80;99.90;;;;;;4975737;28;20563;-74
2022/09/29 02:51:23;;;;;;;5.83;4.37;;;10.80;99.90;;;;;;4978844;28;20439;-76
2022/09/29 02:54:16;;;;;;;5.40;3.80;;;10.90;99.90;;;;;;4970368;28;20971;-74
2022/09/29 02:57:17;;;;;;;5.70;4.27;;;10.80;99.90;;;;;;4958690;28;20473;-74
2022/09/29 02:59:53;;;;;;;6.40;4.67;;;10.90;99.90;;;;;;4961174;28;20540;-74
2022/09/29 03:02:24;;;;;;;5.00;3.87;;;10.90;99.90;;;;;;4974230;28;20448;-74
2022/09/29 03:04:50;;;;;;;8.73;4.43;;;10.90;99.90;;;;;;4978877;28;20453;-76
2022/09/29 03:07:15;;;;;;;5.23;3.90;;;10.90;99.90;;;;;;4975412;28;20451;-75
2022/09/29 03:09:41;;;;;;;7.10;4.10;;;10.90;99.90;;;;;;4960917;28;20272;-75
2022/09/29 03:12:07;;;;;;;6.57;4.07;;;10.90;99.90;;;;;;4975688;28;20273;-74
2022/09/29 03:14:32;;;;;;;5.70;3.77;;;10.90;99.90;;;;;;4954252;28;20287;-74
2022/09/29 03:16:58;;;;;;;6.40;4.17;;;10.90;99.90;;;;;;4960790;28;20190;-75
2022/09/29 03:19:23;;;;;;;6.47;4.00;;;10.90;99.90;;;;;;4969593;28;20213;-75
2022/09/29 03:21:49;;;;;;;4.60;4.07;;;10.90;99.90;;;;;;4976507;28;20280;-74
2022/09/29 03:24:15;;;;;;;6.83;4.27;;;10.90;99.90;;;;;;4961321;28;20190;-74
2022/09/29 03:26:40;;;;;;;7.10;4.00;;;10.90;99.90;;;;;;4944190;28;20683;-74
2022/09/29 03:29:07;;;;;;;5.33;3.60;;;10.90;99.90;;;;;;4963601;28;20249;-74
2022/09/29 03:31:33;;;;;;;4.00;3.50;;;10.90;99.90;;;;;;4971540;28;21135;-74
2022/09/29 03:33:58;;;;;;;4.70;3.83;;;10.90;99.90;;;;;;4970592;28;20468;-74
2022/09/29 03:36:24;;;;;;;4.50;3.70;;;10.90;99.90;;;;;;4972370;28;20194;-74
2022/09/29 03:38:50;;;;;;;5.10;3.57;;;10.90;99.90;;;;;;4958658;28;20205;-74
2022/09/29 03:41:16;;;;;;;5.47;3.97;;;10.90;99.90;;;;;;4967962;28;20185;-74
2022/09/29 03:43:41;;;;;;;4.07;3.67;;;10.90;99.90;;;;;;4970302;28;20450;-74
2022/09/29 03:46:07;;;;;;;9.23;3.87;;;10.90;99.90;;;;;;4972583;28;20672;-74
2022/09/29 03:48:34;;;;;;;5.13;4.00;;;10.90;99.90;;;;;;4967542;28;20217;-74
2022/09/29 03:51:00;;;;;;;5.80;4.20;;;10.90;99.90;;;;;;4973350;28;20198;-75
2022/09/29 03:53:26;;;;;;;5.50;3.70;;;10.90;99.90;;;;;;4973441;28;20489;-75
2022/09/29 03:55:51;;;;;;;6.50;3.70;;;10.90;99.90;;;;;;4968460;28;20872;-74
2022/09/29 03:58:18;;;;;;;4.27;3.63;;;10.90;99.90;;;;;;4975681;28;20955;-74
2022/09/29 04:00:45;;;;;;;7.53;3.80;;;10.90;99.90;;;;;;4976033;28;20193;-73
2022/09/29 04:03:10;;;;;;;6.67;3.73;;;10.90;99.90;;;;;;4966201;28;20436;-73
2022/09/29 04:05:37;;;;;;;8.57;4.47;;;10.90;99.90;;;;;;4969376;28;20453;-74
2022/09/29 04:08:03;;;;;;;5.73;4.27;;;10.90;99.90;;;;;;4977551;28;20541;-74
2022/09/29 04:10:29;;;;;;;7.40;4.80;;;10.90;99.90;;;;;;4978393;28;20444;-75
2022/09/29 04:12:55;;;;;;;5.83;4.00;;;10.90;99.90;;;;;;4979450;28;20775;-74
2022/09/29 04:15:20;;;;;;;5.53;4.27;;;10.90;99.90;;;;;;4976585;28;20598;-74
2022/09/29 04:17:46;;;;;;;9.93;4.20;;;10.90;99.90;;;;;;4978317;28;20232;-74
2022/09/29 04:20:12;;;;;;;8.50;4.60;;;10.90;99.90;;;;;;4978149;28;20606;-74
2022/09/29 04:22:37;;;;;;;11.33;4.37;;;10.90;99.90;;;;;;4979472;28;20265;-74
2022/09/29 04:25:03;;;;;;;8.17;4.07;;;10.90;99.90;;;;;;4980585;28;20648;-74
2022/09/29 04:27:29;;;;;;;4.67;3.90;;;10.90;99.90;;;;;;4957783;28;20197;-74
2022/09/29 04:29:54;;;;;;;4.93;3.93;;;10.90;99.90;;;;;;4976584;28;20206;-74
2022/09/29 04:32:20;;;;;;;5.73;4.40;;;10.90;99.90;;;;;;4974921;28;20199;-74
2022/09/29 04:34:47;;;;;;;6.37;4.57;;;10.80;99.90;;;;;;4970384;28;20210;-74
2022/09/29 04:37:13;;;;;;;6.80;4.90;;;10.90;99.90;;;;;;4981895;28;20244;-74
2022/09/29 04:39:39;;;;;;;9.57;4.17;;;10.90;99.90;;;;;;4974305;28;20488;-75
2022/09/29 04:42:05;;;;;;;5.53;4.17;;;10.90;99.90;;;;;;4973150;28;20491;-74
2022/09/29 04:44:30;;;;;;;6.80;4.50;;;10.90;99.90;;;;;;4970190;28;20333;-74
2022/09/29 04:46:56;;;;;;;5.77;3.93;;;10.90;99.90;;;;;;4972440;28;20883;-75
2022/09/29 04:49:22;;;;;;;6.10;4.30;;;10.90;99.90;;;;;;4974256;28;20214;-74
2022/09/29 04:51:47;;;;;;;6.17;4.63;;;10.90;99.90;;;;;;4979085;28;20213;-74
2022/09/29 04:54:14;;;;;;;6.60;4.20;;;10.90;99.90;;;;;;4980714;28;20217;-75
2022/09/29 04:56:39;;;;;;;5.10;4.00;;;10.90;99.90;;;;;;4979777;28;20186;-75
2022/09/29 04:59:05;;;;;;;7.60;5.00;;;10.90;99.90;;;;;;4962800;28;20456;-75
2022/09/29 05:01:31;;;;;;;7.27;4.77;;;10.80;99.90;;;;;;4977782;28;20196;-75
2022/09/29 05:03:56;;;;;;;6.27;4.40;;;10.80;99.90;;;;;;4962060;28;20200;-75
2022/09/29 05:06:22;;;;;;;8.00;4.83;;;10.80;99.90;;;;;;4977938;28;20491;-75
2022/09/29 05:08:48;;;;;;;6.43;5.10;;;10.80;99.90;;;;;;4976466;28;20256;-75
2022/09/29 05:11:14;;;;;;;8.50;5.50;;;10.80;99.90;;;;;;4958177;28;20731;-75
2022/09/29 05:13:40;;;;;;;6.00;5.40;;;10.80;99.90;;;;;;4976957;28;20563;-73
2022/09/29 05:16:06;;;;;;;7.50;5.50;;;10.80;99.90;;;;;;4953383;28;20182;-74
2022/09/29 05:18:32;;;;;;;6.93;5.03;;;10.80;99.90;;;;;;4972133;28;20240;-73
2022/09/29 05:21:03;;;;;;;9.57;6.23;;;10.80;99.90;;;;;;4946809;28;20523;-74
2022/09/29 05:23:28;;;;;;;11.03;5.70;;;10.80;99.90;;;;;;4970689;28;20452;-74
2022/09/29 05:25:54;;;;;;;8.53;4.90;;;10.80;99.90;;;;;;4971286;28;20449;-73
2022/09/29 05:28:20;;;;;;;8.57;4.90;;;10.90;99.90;;;;;;4964650;28;20213;-73
2022/09/29 05:30:45;;;;;;;7.53;5.23;;;10.90;99.90;;;;;;4967053;28;20654;-74
2022/09/29 05:33:11;;;;;;;7.17;5.37;;;10.90;99.90;;;;;;4966402;28;20684;-73
2022/09/29 05:35:37;;;;;;;8.47;5.17;;;10.90;99.90;;;;;;4968362;28;20190;-74
2022/09/29 05:38:02;;;;;;;8.47;4.87;;;10.90;99.90;;;;;;4971536;28;20213;-75
2022/09/29 05:40:28;;;;;;;7.33;4.50;;;10.90;99.90;;;;;;4974536;28;20324;-74
2022/09/29 05:42:54;;;;;;;8.80;5.37;;;10.90;99.90;;;;;;4955796;28;20213;-74
2022/09/29 05:45:19;;;;;;;6.10;4.90;;;11.00;99.90;;;;;;4960443;28;20187;-74
2022/09/29 05:47:45;;;;;;;7.47;5.00;;;10.90;99.90;;;;;;4958412;28;20190;-74
2022/09/29 05:50:12;;;;;;;4.87;3.97;;;10.90;99.90;;;;;;4973076;28;20977;-74
2022/09/29 05:52:39;;;;;;;7.20;5.00;;;11.00;99.90;;;;;;4968524;28;20555;-74
2022/09/29 05:55:08;;;;;;;5.40;4.67;;;11.00;99.90;;;;;;4968954;28;20490;-73
2022/09/29 05:57:34;;;;;;;8.37;5.13;;;11.10;99.90;;;;;;4969239;28;20424;-74
2022/09/29 06:00:00;;;;;;;10.40;5.23;;;11.10;99.90;;;;;;4967307;28;20524;-75
2022/09/29 06:02:26;;;;;;;9.40;5.20;;;11.10;99.90;;;;;;4942035;28;21529;-75
2022/09/29 06:04:51;;;;;;;5.23;4.73;;;11.20;99.90;;;;;;4967878;28;20522;-73
2022/09/29 06:07:17;;;;;;;6.93;5.17;;;11.10;99.90;;;;;;4964881;28;20212;-75
2022/09/29 06:09:43;;;;;;;7.87;4.27;;;11.20;99.90;;;;;;4977102;28;20214;-75
2022/09/29 06:12:08;;;;;;;5.87;4.77;;;11.20;99.90;;;;;;4966044;28;20289;-76
2022/09/29 06:14:34;;;;;;;8.60;4.93;;;11.20;99.90;;;;;;4969914;28;20264;-75
2022/09/29 06:16:59;;;;;;;9.20;4.73;;;11.20;99.90;;;;;;4947245;28;20192;-76
2022/09/29 06:19:25;;;;;;;7.47;4.70;;;11.20;99.90;;;;;;4954801;28;21278;-76
2022/09/29 06:21:51;;;;;;;7.00;4.83;;;11.30;99.90;;;;;;4970173;28;20599;-75
2022/09/29 06:24:16;;;;;;;10.00;5.20;;;11.20;99.90;;;;;;4954909;28;20192;-76
2022/09/29 06:26:42;;;;;;;7.13;6.40;;;11.20;99.90;;;;;;4954139;28;20230;-75
2022/09/29 06:29:07;;;;;;;8.37;5.67;;;11.30;99.90;;;;;;4965404;28;20228;-75
2022/09/29 06:31:33;;;;;;;6.57;5.57;;;11.30;99.90;;;;;;4967440;28;20204;-76
2022/09/29 06:34:02;;;;;;;7.80;5.07;;;11.40;99.90;;;;;;4970090;28;20216;-76
2022/09/29 06:39:14;;;;;;;9.17;4.87;;;11.50;99.90;;;;;;4973748;28;20615;-76
2022/09/29 06:41:45;;;;;;;11.33;5.87;;;11.50;99.90;;;;;;4973807;28;20437;-75
2022/09/29 06:44:11;;;;;;;10.00;5.20;;;11.60;99.90;;;;;;4962590;28;20814;-75
2022/09/29 06:46:37;;;;;;;6.33;4.93;;;11.70;99.90;;;;;;4951741;28;20440;-75
2022/09/29 06:49:02;;;;;;;9.00;5.50;;;11.70;99.90;;;;;;4976102;28;20791;-75
2022/09/29 06:51:28;;;;;;;10.93;5.23;;;11.80;99.90;;;;;;4975346;28;20300;-75
2022/09/29 06:53:54;;;;;;;12.70;6.33;;;11.90;99.90;;;;;;4973276;28;20210;-75
2022/09/29 06:56:20;;;;;;;8.00;5.30;;;11.90;99.90;;;;;;4959844;28;20487;-75
2022/09/29 06:58:45;;;;;;;11.13;5.10;;;12.00;99.90;;;;;;4949308;28;20255;-75
2022/09/29 07:01:11;;;;;;;8.07;5.37;;;12.10;99.90;;;;;;4968808;28;20251;-75
2022/09/29 07:03:38;;;;;;;7.27;5.60;;;12.10;99.90;;;;;;4972355;28;20182;-75
2022/09/29 07:06:04;;;;;;;8.73;5.07;;;12.20;99.90;;;;;;4971709;28;20452;-75
2022/09/29 07:08:30;;;;;;;6.73;5.20;;;12.20;99.90;;;;;;4973435;28;20497;-75
2022/09/29 07:10:56;;;;;;;11.23;6.00;;;12.30;99.90;;;;;;4959584;28;20977;-75
2022/09/29 07:13:22;;;;;;;6.60;4.87;;;12.30;99.90;;;;;;4952827;28;20216;-76
2022/09/29 07:15:47;;;;;;;9.87;5.17;;;12.40;99.90;;;;;;4967334;28;21237;-75
2022/09/29 07:18:13;;;;;;;6.40;4.43;;;12.40;99.90;;;;;;4953337;28;20216;-75
2022/09/29 07:20:39;;;;;;;8.50;5.37;;;12.50;99.90;;;;;;4954423;28;20297;-75
2022/09/29 07:23:07;;;;;;;8.27;5.40;;;12.60;99.90;;;;;;4971345;28;20189;-76
2022/09/29 07:25:33;;;;;;;7.30;5.23;;;12.60;99.90;;;;;;4967581;28;20444;-76
2022/09/29 07:28:00;;;;;;;9.43;5.90;;;12.70;99.90;;;;;;4976268;28;20421;-75
2022/09/29 07:30:29;;;;;;;10.03;5.93;;;12.70;99.90;;;;;;4973281;28;20457;-75
2022/09/29 07:32:56;;;;;;;9.07;5.90;;;12.80;99.90;;;;;;4974283;28;20441;-74
2022/09/29 07:35:27;;;;;;;6.97;5.10;;;12.80;99.90;;;;;;4959667;28;20440;-75
2022/09/29 07:37:54;;;;;;;7.63;5.70;;;12.90;99.90;;;;;;4969963;28;20449;-76
2022/09/29 07:40:21;;;;;;;6.63;5.10;;;13.00;99.90;;;;;;4965577;28;20490;-76
2022/09/29 07:42:47;;;;;;;7.20;5.07;;;13.00;99.90;;;;;;4972122;28;21670;-75
2022/09/29 07:45:14;;;;;;;9.60;6.37;;;13.00;99.90;;;;;;4955122;28;20500;-75
2022/09/29 07:47:39;;;;;;;8.40;4.50;;;13.00;99.90;;;;;;4973570;28;20444;-75
2022/09/29 07:50:05;;;;;;;7.37;5.13;;;13.10;99.90;;;;;;4970695;28;21230;-75
2022/09/29 07:52:31;;;;;;;7.20;5.20;;;13.10;99.90;;;;;;4959736;28;20202;-76
2022/09/29 07:54:56;;;;;;;9.60;5.70;;;13.20;99.90;;;;;;4955303;28;20479;-76
2022/09/29 07:57:22;;;;;;;6.23;5.33;;;13.30;99.90;;;;;;4965924;28;20525;-75
2022/09/29 07:59:48;;;;;;;7.80;4.70;;;13.40;99.90;;;;;;4981459;28;20225;-75
2022/09/29 08:02:14;;;;;;;7.60;5.30;;;13.50;99.90;;;;;;4957571;28;20208;-75
2022/09/29 08:04:41;;;;;;;11.50;6.40;;;13.50;99.90;;;;;;4979044;28;20261;-74
2022/09/29 08:07:06;;;;;;;6.83;5.57;;;13.50;99.90;;;;;;4972804;28;21317;-75
2022/09/29 08:09:32;;;;;;;6.40;5.37;;;13.50;99.90;;;;;;4979237;28;20563;-75
2022/09/29 08:11:58;;;;;;;8.13;5.50;;;13.50;99.90;;;;;;4980325;28;20173;-74
2022/09/29 08:14:26;;;;;;;7.23;6.13;;;13.60;99.90;;;;;;4975624;28;20197;-75
2022/09/29 08:16:52;;;;;;;9.60;5.60;;;13.60;99.90;;;;;;4961718;28;20641;-75
2022/09/29 08:19:17;;;;;;;6.57;5.87;;;13.70;99.90;;;;;;4979791;28;20472;-75
2022/09/29 08:21:44;;;;;;;6.63;5.77;;;13.70;99.90;;;;;;4979486;28;20177;-76
2022/09/29 08:24:12;;;;;;;8.63;5.70;;;13.80;99.90;;;;;;4980156;28;20197;-76
2022/09/29 08:26:39;;;;;;;7.20;5.23;;;13.80;99.90;;;;;;4978571;28;20894;-75
2022/09/29 08:29:05;;;;;;;10.90;6.07;;;13.80;99.90;;;;;;4978381;28;20539;-75
2022/09/29 08:31:31;;;;;;;11.50;5.37;;;13.90;99.90;;;;;;4957772;28;20484;-75
2022/09/29 08:34:00;;;;;;;7.00;5.37;;;13.90;99.90;;;;;;4980682;28;20468;-76
2022/09/29 08:36:26;;;;;;;10.53;5.63;;;14.00;99.90;;;;;;4959551;28;20981;-74
2022/09/29 08:38:54;;;;;;;6.87;5.30;;;14.00;99.90;;;;;;4977799;28;20441;-74
2022/09/29 08:41:36;;;;;;;9.23;5.93;;;14.00;99.90;;;;;;4977197;28;20443;-74
2022/09/29 08:44:09;;;;;;;6.90;5.33;;;14.10;99.90;;;;;;4966810;28;20425;-75
2022/09/29 08:46:47;;;;;;;7.77;5.70;;;14.10;99.90;;;;;;4974758;28;20432;-75
2022/09/29 08:49:31;;;;;;;6.40;5.20;;;14.10;99.90;;;;;;4980855;28;20432;-74
2022/09/29 08:52:08;;;;;;;6.90;4.97;;;14.20;99.90;;;;;;4975349;28;20449;-75
2022/09/29 08:54:40;;;;;;;9.93;5.40;;;14.30;99.90;;;;;;4961865;28;20982;-75
2022/09/29 08:57:16;;;;;;;7.73;6.30;;;14.30;99.90;;;;;;4978000;28;20876;-77
2022/09/29 08:59:44;;;;;;;10.63;6.37;;;14.40;99.90;;;;;;4973560;28;20444;-74
2022/09/29 09:02:28;;;;;;;6.97;5.30;;;14.40;99.90;;;;;;4974689;28;20429;-76
2022/09/29 09:04:54;;;;;;;7.37;5.27;;;14.30;99.90;;;;;;4975666;28;20417;-74
2022/09/29 09:07:49;;;;;;;6.67;5.87;;;14.30;99.90;;;;;;4956704;28;20516;-75
2022/09/29 09:10:34;;;;;;;8.43;6.20;;;14.50;99.90;;;;;;4979208;28;20205;-75
2022/09/29 09:13:14;;;;;;;7.40;5.83;;;14.60;99.90;;;;;;4974637;28;20530;-75
2022/09/29 09:15:40;;;;;;;6.50;5.80;;;14.60;99.90;;;;;;4959708;28;20479;-76
2022/09/29 09:18:43;;;;;;;7.30;5.37;;;14.60;99.90;;;;;;4976003;28;20547;-75
2022/09/29 09:21:14;;;;;;;7.20;5.43;;;14.80;99.90;;;;;;4966664;28;20185;-75
2022/09/29 09:23:45;;;;;;;6.33;5.70;;;14.90;99.90;;;;;;4969225;28;20451;-75
2022/09/29 09:26:13;;;;;;;8.07;5.30;;;15.00;99.90;;;;;;4973849;28;20426;-75
2022/09/29 09:28:49;;;;;;;10.20;5.13;;;14.90;99.90;;;;;;4970247;28;20587;-75
2022/09/29 09:31:24;;;;;;;4.83;4.33;;;15.10;99.90;;;;;;4979341;28;20516;-76
2022/09/29 09:33:56;;;;;;;7.93;6.60;;;15.10;99.90;;;;;;4975683;28;20468;-75
2022/09/29 09:36:35;;;;;;;9.10;8.00;;;15.30;99.90;;;;;;4973965;28;20443;-75
2022/09/29 09:39:09;;;;;;;10.57;9.17;;;15.40;99.90;;;;;;4971961;28;20453;-76
2022/09/29 09:41:38;;;;;;;10.70;8.43;;;15.60;99.90;;;;;;4973570;28;20456;-76
2022/09/29 09:44:20;;;;;;;10.40;8.10;;;15.50;99.90;;;;;;4974099;28;20508;-76
2022/09/29 09:46:53;;;;;;;9.63;8.03;;;15.60;99.90;;;;;;4957136;28;20441;-75
2022/09/29 09:50:00;;;;;;;11.10;8.93;;;15.80;99.90;;;;;;4971650;28;20457;-76
2022/09/29 09:52:38;;;;;;;10.87;8.90;;;16.00;99.90;;;;;;4908571;29;20435;-76
2022/09/29 09:55:05;;;;;;;9.40;8.17;;;16.10;99.90;;;;;;4968645;28;20475;-76
2022/09/29 09:58:02;;;;;;;10.20;9.10;;;16.00;99.90;;;;;;4974890;28;20425;-75
2022/09/29 10:00:35;;;;;;;12.23;8.50;;;16.10;99.90;;;;;;4974759;28;20443;-75
2022/09/29 10:03:04;;;;;;;14.70;8.30;;;16.10;99.90;;;;;;4975831;28;20480;-76
2022/09/29 10:05:41;;;;;;;10.83;8.73;;;16.20;99.90;;;;;;4960673;28;20417;-76
2022/09/29 10:08:31;;;;;;;12.40;8.40;;;16.30;99.90;;;;;;4953983;28;20521;-73
2022/09/29 10:10:58;;;;;;;8.80;7.30;;;16.30;99.90;;;;;;4974986;28;20475;-75
2022/09/29 10:13:29;;;;;;;10.93;7.33;;;16.40;99.90;;;;;;4974709;28;20460;-74
2022/09/29 10:16:09;;;;;;;8.27;6.60;;;16.40;99.90;;;;;;4975183;28;20433;-74
2022/09/29 10:18:52;;;;;;;7.67;6.87;;;16.50;99.90;;;;;;4975960;28;20457;-74
2022/09/29 10:21:28;;;;;;;8.20;7.33;;;16.50;99.90;;;;;;4974143;28;20443;-74
2022/09/29 10:24:06;;;;;;;9.23;7.30;;;16.50;99.90;;;;;;4954180;28;20514;-74
2022/09/29 10:26:54;;;;;;;7.43;6.60;;;16.40;99.90;;;;;;4974112;28;21013;-74
2022/09/29 10:29:43;;;;;;;10.43;6.90;;;16.40;99.90;;;;;;4976764;28;20449;-74
2022/09/29 10:32:13;;;;;;;10.97;6.90;;;16.50;99.90;;;;;;4951666;28;21343;-75
2022/09/29 10:34:46;;;;;;;9.50;6.70;;;16.30;99.90;;;;;;4972961;28;20518;-75
2022/09/29 10:37:34;;;;;;;6.70;6.00;;;16.20;99.90;;;;;;4968565;28;20923;-74
2022/09/29 10:40:11;;;;;;;7.77;5.57;;;16.10;99.90;;;;;;4970781;28;20480;-75
2022/09/29 10:42:39;;;;;;;9.10;6.70;;;16.20;99.90;;;;;;4980788;28;20421;-74
2022/09/29 10:45:16;;;;;;;8.63;5.70;;;16.40;99.90;;;;;;4971796;28;20532;-75
2022/09/29 10:47:56;;;;;;;9.40;5.70;;;16.50;99.90;;;;;;4972563;28;20507;-76
2022/09/29 10:50:28;;;;;;;6.33;5.73;;;16.50;99.90;;;;;;4965568;28;20441;-76
2022/09/29 10:53:03;;;;;;;7.10;6.10;;;16.70;99.90;;;;;;4971889;28;20479;-75
2022/09/29 10:55:35;;;;;;;7.93;5.30;;;16.90;99.90;;;;;;4971167;28;20451;-75
2022/09/29 10:58:18;;;;;;;7.50;5.30;;;17.10;99.90;;;;;;4973556;28;20433;-74
2022/09/29 11:00:46;;;;;;;8.93;5.23;;;17.10;99.90;;;;;;4967504;28;20442;-74
2022/09/29 11:03:27;;;;;;;6.87;4.90;;;17.30;99.90;;;;;;4968713;28;20445;-74
2022/09/29 11:06:00;;;;;;;7.90;5.33;;;17.40;99.90;;;;;;4969116;28;20444;-75
2022/09/29 11:08:26;;;;;;;7.77;5.83;;;17.50;99.90;;;;;;4981316;28;20486;-75
2022/09/29 11:11:03;;;;;;;8.13;6.50;;;17.70;99.90;;;;;;4953088;28;20420;-74
2022/09/29 11:13:44;;;;;;;7.97;5.83;;;17.70;99.90;;;;;;4975450;28;20470;-74
2022/09/29 11:16:14;;;;;;;7.60;5.80;;;17.90;99.90;;;;;;4977161;28;20478;-75
2022/09/29 11:18:42;;;;;;;6.00;5.17;;;17.90;99.90;;;;;;4979687;28;20476;-74
2022/09/29 11:21:20;;;;;;;7.00;5.70;;;17.90;99.90;;;;;;4954886;28;20445;-74
2022/09/29 11:24:01;;;;;;;8.37;5.97;;;18.00;99.90;;;;;;4953447;28;20457;-75
2022/09/29 11:26:58;;;;;;;8.83;6.13;;;17.90;99.90;;;;;;4971222;28;20444;-74
2022/09/29 11:29:38;;;;;;;6.57;5.97;;;17.90;99.90;;;;;;4969110;28;20464;-75
2022/09/29 11:32:14;;;;;;;9.30;6.37;;;18.00;99.90;;;;;;4969303;28;20448;-74
2022/09/29 11:35:04;;;;;;;10.70;6.43;;;18.00;99.90;;;;;;4965011;28;20456;-74
2022/09/29 11:37:49;;;;;;;5.87;5.27;;;17.90;99.90;;;;;;4972245;28;20429;-75
2022/09/29 11:40:27;;;;;;;7.63;6.40;;;17.90;99.90;;;;;;4969964;28;20486;-74
2022/09/29 11:43:06;;;;;;;8.53;5.57;;;17.80;99.90;;;;;;4945443;28;20452;-75
2022/09/29 11:45:46;;;;;;;6.73;5.70;;;17.70;99.90;;;;;;4952584;28;20440;-75
2022/09/29 11:48:38;;;;;;;7.47;5.83;;;17.70;99.90;;;;;;4966386;28;20460;-74
2022/09/29 11:51:19;;;;;;;8.50;6.40;;;17.60;99.90;;;;;;4956880;28;20451;-74
2022/09/29 11:54:03;;;;;;;8.73;6.60;;;17.70;99.90;;;;;;4975133;28;20500;-75
2022/09/29 11:56:43;;;;;;;6.83;5.77;;;17.90;99.90;;;;;;4973481;28;20441;-75
2022/09/29 11:59:12;;;;;;;8.03;5.60;;;18.00;99.90;;;;;;4976082;28;21004;-74
2022/09/29 12:02:16;;;;;;;11.70;6.60;;;18.10;99.90;;;;;;4982842;28;20524;-75
2022/09/29 12:04:53;;;;;;;6.60;6.00;;;18.20;99.90;;;;;;4966747;28;20536;-75
2022/09/29 12:07:45;;;;;;;8.20;6.23;;;18.30;99.90;;;;;;4974439;28;20470;-75
2022/09/29 12:10:29;;;;;;;9.47;6.00;;;18.30;99.90;;;;;;4970281;28;20453;-76
2022/09/29 12:13:19;;;;;;;6.63;5.67;;;18.40;99.90;;;;;;4951210;28;20444;-75
2022/09/29 12:16:02;;;;;;;7.63;6.20;;;18.30;99.90;;;;;;4965681;28;20437;-75
2022/09/29 12:18:40;;;;;;;8.47;5.90;;;18.30;99.90;;;;;;4974386;28;20456;-75
2022/09/29 12:21:09;;;;;;;8.63;6.00;;;18.30;99.90;;;;;;4973288;28;20425;-73
2022/09/29 12:23:39;;;;;;;6.80;6.13;;;18.30;99.90;;;;;;4954947;28;21054;-74
2022/09/29 12:26:09;;;;;;;7.07;5.63;;;18.30;99.90;;;;;;4976135;28;20443;-74
2022/09/29 12:29:14;;;;;;;7.00;6.40;;;18.30;99.90;;;;;;4978658;28;20452;-75
2022/09/29 12:31:46;;;;;;;9.30;6.00;;;18.30;99.90;;;;;;4976294;28;20456;-74
2022/09/29 12:34:47;;;;;;;8.30;5.03;;;18.30;99.90;;;;;;4962667;28;20985;-74
2022/09/29 12:37:35;;;;;;;5.93;5.20;;;18.30;99.90;;;;;;4958850;28;20453;-75
2022/09/29 12:40:16;;;;;;;6.10;5.43;;;18.30;99.90;;;;;;4975613;28;20464;-75
2022/09/29 12:43:01;;;;;;;7.07;5.63;;;18.40;99.90;;;;;;4956487;28;20437;-74
2022/09/29 12:45:37;;;;;;;7.43;5.53;;;18.40;99.90;;;;;;4976120;28;20441;-75
2022/09/29 12:48:14;;;;;;;6.13;5.50;;;18.40;99.90;;;;;;4975406;28;21093;-74
2022/09/29 12:50:45;;;;;;;7.30;5.03;;;18.30;99.90;;;;;;4980806;28;20710;-74
2022/09/29 12:53:24;;;;;;;6.03;4.60;;;18.30;99.90;;;;;;4981414;28;20448;-74
2022/09/29 12:56:01;;;;;;;4.93;4.23;;;18.30;99.90;;;;;;4975563;28;20520;-74
2022/09/29 12:58:45;;;;;;;5.13;4.63;;;18.20;99.90;;;;;;4979060;28;20535;-75
2022/09/29 13:01:20;;;;;;;6.90;4.70;;;18.20;99.90;;;;;;4977173;28;20421;-76
2022/09/29 13:04:20;;;;;;;6.10;4.90;;;18.20;99.90;;;;;;4978817;28;20451;-74
2022/09/29 13:07:10;;;;;;;7.40;4.80;;;18.10;99.90;;;;;;4973170;28;20445;-74
2022/09/29 13:09:54;;;;;;;8.30;4.17;;;18.10;99.90;;;;;;4977558;28;20446;-75
2022/09/29 13:12:31;;;;;;;9.87;4.60;;;18.00;99.90;;;;;;4974645;28;20619;-74
2022/09/29 13:15:28;;;;;;;5.47;4.10;;;18.00;99.90;;;;;;4979600;28;20910;-74